KBAM/BAM METAR and TAF weather

Enter ICAO airport designator
Station Type Date Time Source
KBAM METAR 2021/09/16 21:35 UTC NOAA

KBAM 162135Z AUTO 35008KT 10SM CLR 28/00 A2996 RMK AO1


Station Type Date Time Source
KBAM Decoded METAR 2021/09/16 21:35 UTC NOAA

Station name not available
Sep 16, 2021 - 05:35 PM EDT / 2021.09.16 2135 UTC
Wind: from the N (350 degrees) at 9 MPH (8 KT):0
Visibility: 10 mile(s):0
Sky conditions: clear
Temperature: 82 F (28 C)
Dew Point: 32 F (0 C)
Relative Humidity: 16%
Pressure (altimeter): 29.96 in. Hg (1014 hPa)
ob: KBAM 162135Z AUTO 35008KT 10SM CLR 28/00 A2996 RMK AO1
cycle: 21

Station Type Date Time Source
KBAM TAF 2021/09/16 18:54 UTC NOAA

TAF KBAM 161752Z 1618/1718 VRB05KT P6SM FEW120
FM162000 34009G17KT P6SM SKC
FM170400 VRB05KT P6SM FEW250

Example: see airport list